createdAt,value
2023-01-07T00:01:25.615Z,100214.69
2023-01-07T00:03:54.749Z,100209.56
2023-01-07T00:06:25.154Z,100217.94
2023-01-07T00:08:54.982Z,100216.31
2023-01-07T00:11:25.160Z,100214.59
2023-01-07T00:13:54.913Z,100215.16
2023-01-07T00:16:25.976Z,100220.28
2023-01-07T00:18:55.514Z,100217.53
2023-01-07T00:21:24.741Z,100220.78
2023-01-07T00:23:55.304Z,100217.38
2023-01-07T00:26:24.692Z,100218.53
2023-01-07T00:28:53.877Z,100226.38
2023-01-07T00:31:24.778Z,100224.16
2023-01-07T00:34:06.983Z,100201.34
2023-01-07T00:36:40.885Z,100216.72
2023-01-07T00:39:12.722Z,100215.66
2023-01-07T00:41:40.935Z,100208.19
2023-01-07T00:44:08.897Z,100209.13
2023-01-07T00:46:38.205Z,100211.63
2023-01-07T00:49:06.118Z,100212.31
2023-01-07T00:51:33.958Z,100219.38
2023-01-07T00:54:02.323Z,100218.78
2023-01-07T00:56:30.621Z,100227.66
2023-01-07T00:58:58.606Z,100236.50
2023-01-07T01:01:27.000Z,100238.78
2023-01-07T01:03:56.260Z,100232.78
2023-01-07T01:06:24.165Z,100238.69
2023-01-07T01:08:52.102Z,100236.22
2023-01-07T01:11:20.921Z,100238.38
2023-01-07T01:13:48.890Z,100217.31
2023-01-07T01:16:19.389Z,100228.34
2023-01-07T01:18:47.260Z,100232.28
2023-01-07T01:21:17.312Z,100234.22
2023-01-07T01:23:45.433Z,100241.25
2023-01-07T01:26:15.622Z,100241.69
2023-01-07T01:28:44.426Z,100235.81
2023-01-07T01:31:14.659Z,100236.72
2023-01-07T01:33:55.247Z,100234.66
2023-01-07T01:36:25.487Z,100202.69
2023-01-07T01:38:57.444Z,100227.16
2023-01-07T01:41:25.896Z,100233.31
2023-01-07T01:43:55.430Z,100230.13
2023-01-07T01:46:31.942Z,100230.34
2023-01-07T01:49:04.514Z,100228.88
2023-01-07T01:51:39.844Z,100221.59
2023-01-07T01:54:11.706Z,100221.59
2023-01-07T01:56:44.770Z,100230.22
2023-01-07T01:59:18.720Z,100212.22
2023-01-07T02:01:46.923Z,100225.50
2023-01-07T02:04:20.695Z,100221.13
2023-01-07T02:06:55.805Z,100220.00
2023-01-07T02:09:25.541Z,100220.19
2023-01-07T02:12:04.360Z,100219.69
2023-01-07T02:14:45.481Z,100215.59
2023-01-07T02:17:23.483Z,100214.72
2023-01-07T02:20:20.072Z,100206.50
2023-01-07T02:23:19.660Z,100213.19
2023-01-07T02:26:12.147Z,100210.69
2023-01-07T02:29:03.030Z,100206.66
2023-01-07T02:32:00.870Z,100211.81
2023-01-07T02:34:38.598Z,100219.09
2023-01-07T02:37:13.812Z,100219.25
2023-01-07T02:39:56.304Z,100220.38
2023-01-07T02:42:38.646Z,100213.56
2023-01-07T02:45:16.449Z,100229.78
2023-01-07T02:47:51.854Z,100221.78
2023-01-07T02:50:20.560Z,100215.72
2023-01-07T02:52:48.501Z,100220.53
2023-01-07T02:55:19.939Z,100224.56
2023-01-07T02:58:14.295Z,100221.88
2023-01-07T03:01:25.214Z,100218.53
2023-01-07T03:04:07.862Z,100216.78
2023-01-07T03:06:50.208Z,100218.13
2023-01-07T03:09:26.478Z,100214.88
2023-01-07T03:12:01.664Z,100223.44
2023-01-07T03:14:39.391Z,100222.75
2023-01-07T03:17:10.231Z,100216.75
2023-01-07T03:19:45.781Z,100225.16
2023-01-07T03:22:16.462Z,100233.19
2023-01-07T03:24:47.627Z,100227.91
2023-01-07T03:27:19.857Z,100229.44
2023-01-07T03:29:48.803Z,100234.56
2023-01-07T03:32:19.093Z,100236.47
2023-01-07T03:34:49.981Z,100232.44
2023-01-07T03:37:20.123Z,100227.63
2023-01-07T03:39:49.937Z,100230.88
2023-01-07T03:42:40.880Z,100220.44
2023-01-07T03:45:22.010Z,100216.16
2023-01-07T03:47:52.129Z,100231.66
2023-01-07T03:50:23.046Z,100218.56
2023-01-07T03:52:52.288Z,100225.84
2023-01-07T03:55:22.223Z,100214.53
2023-01-07T03:57:52.133Z,100226.34
2023-01-07T04:00:20.196Z,100223.78
2023-01-07T04:02:55.553Z,100224.66
2023-01-07T04:05:29.720Z,100217.81
2023-01-07T04:07:57.681Z,100216.25
2023-01-07T04:10:27.155Z,100220.38
2023-01-07T04:12:55.073Z,100210.19
2023-01-07T04:15:23.509Z,100213.31
2023-01-07T04:17:51.824Z,100194.09
2023-01-07T04:20:19.892Z,100218.53
2023-01-07T04:22:49.125Z,100214.44
2023-01-07T04:25:17.002Z,100212.03
2023-01-07T04:27:46.155Z,100205.34
2023-01-07T04:30:14.290Z,100201.06
2023-01-07T04:32:42.218Z,100200.22
2023-01-07T04:35:10.862Z,100189.38
2023-01-07T04:37:39.452Z,100201.28
2023-01-07T04:40:10.477Z,100202.06
2023-01-07T04:42:38.746Z,100200.59
2023-01-07T04:45:09.944Z,100199.66
2023-01-07T04:47:37.898Z,100204.34
2023-01-07T04:50:08.126Z,100202.16
2023-01-07T04:52:37.553Z,100211.38
2023-01-07T04:55:07.506Z,100205.63
2023-01-07T04:57:36.757Z,100175.03
2023-01-07T05:00:05.934Z,100212.06
2023-01-07T05:02:34.513Z,100209.81
2023-01-07T05:05:02.635Z,100192.72
2023-01-07T05:07:31.207Z,100197.69
2023-01-07T05:10:00.160Z,100209.16
2023-01-07T05:12:29.298Z,100208.81
2023-01-07T05:14:58.548Z,100210.19
2023-01-07T05:17:27.022Z,100212.91
2023-01-07T05:19:55.077Z,100212.59
2023-01-07T05:22:23.113Z,100209.00
2023-01-07T05:24:51.042Z,100202.91
2023-01-07T05:27:18.967Z,100215.22
2023-01-07T05:29:46.885Z,100216.75
2023-01-07T05:32:16.073Z,100213.28
2023-01-07T05:34:44.664Z,100213.47
2023-01-07T05:37:12.514Z,100211.41
2023-01-07T05:39:42.166Z,100222.84
2023-01-07T05:42:10.419Z,100200.25
2023-01-07T05:44:38.377Z,100206.06
2023-01-07T05:47:06.305Z,100209.66
2023-01-07T05:49:35.653Z,100221.41
2023-01-07T05:52:03.514Z,100218.41
2023-01-07T05:54:31.358Z,100222.50
2023-01-07T05:56:59.264Z,100219.72
2023-01-07T05:59:27.104Z,100222.66
2023-01-07T06:01:55.017Z,100223.41
2023-01-07T06:04:22.925Z,100214.63
2023-01-07T06:06:52.187Z,100208.63
2023-01-07T06:09:20.167Z,100201.47
2023-01-07T06:11:48.051Z,100209.00
2023-01-07T06:14:16.052Z,100209.00
2023-01-07T06:16:43.918Z,100217.19
2023-01-07T06:19:11.905Z,100207.13
2023-01-07T06:21:39.891Z,100200.75
2023-01-07T06:24:09.749Z,100210.09
2023-01-07T06:26:37.689Z,100229.06
2023-01-07T06:29:05.548Z,100227.69
2023-01-07T06:31:33.965Z,100223.69
2023-01-07T06:34:01.794Z,100219.84
2023-01-07T06:36:29.676Z,100219.00
2023-01-07T06:38:57.495Z,100226.59
2023-01-07T06:41:26.650Z,100220.63
2023-01-07T06:43:54.544Z,100229.69
2023-01-07T06:46:22.809Z,100231.88
2023-01-07T06:48:50.700Z,100240.56
2023-01-07T06:51:18.580Z,100244.91
2023-01-07T06:53:46.449Z,100243.53
2023-01-07T06:56:14.303Z,100239.50
2023-01-07T06:58:43.526Z,100239.50
2023-01-07T07:01:11.814Z,100233.59
2023-01-07T07:03:39.998Z,100244.13
2023-01-07T07:06:08.122Z,100248.16
2023-01-07T07:08:35.960Z,100254.75
2023-01-07T07:11:03.755Z,100263.13
2023-01-07T07:13:31.609Z,100254.19
2023-01-07T07:16:00.859Z,100252.69
2023-01-07T07:18:28.995Z,100253.81
2023-01-07T07:20:58.550Z,100262.38
2023-01-07T07:23:26.659Z,100258.25
2023-01-07T07:25:54.895Z,100258.59
2023-01-07T07:28:22.743Z,100257.56
2023-01-07T07:30:50.626Z,100257.34
2023-01-07T07:33:19.985Z,100266.22
2023-01-07T07:35:48.628Z,100241.41
2023-01-07T07:38:17.938Z,100250.31
2023-01-07T07:40:46.153Z,100259.03
2023-01-07T07:43:14.450Z,100251.78
2023-01-07T07:45:42.760Z,100256.28
2023-01-07T07:48:11.269Z,100262.19
2023-01-07T07:50:40.479Z,100242.03
2023-01-07T07:53:10.344Z,100241.66
2023-01-07T07:55:39.069Z,100248.34
2023-01-07T07:58:07.657Z,100254.66
2023-01-07T08:00:35.569Z,100246.97
2023-01-07T08:03:03.747Z,100251.94
2023-01-07T08:05:31.838Z,100252.09
2023-01-07T08:08:01.041Z,100245.88
2023-01-07T08:10:30.119Z,100244.81
2023-01-07T08:12:57.995Z,100257.09
2023-01-07T08:15:26.224Z,100248.78
2023-01-07T08:18:01.339Z,100237.31
2023-01-07T08:20:29.837Z,100214.25
2023-01-07T08:23:00.941Z,100231.63
2023-01-07T08:25:28.945Z,100232.06
2023-01-07T08:27:57.022Z,100238.06
2023-01-07T08:30:25.691Z,100241.88
2023-01-07T08:32:53.665Z,100227.72
2023-01-07T08:35:22.025Z,100229.09
2023-01-07T08:37:50.102Z,100224.66
2023-01-07T08:40:19.332Z,100235.59
2023-01-07T08:42:47.173Z,100232.25
2023-01-07T08:45:15.067Z,100234.75
2023-01-07T08:47:47.435Z,100243.44
2023-01-07T08:50:15.444Z,100227.72
2023-01-07T08:52:48.749Z,100237.50
2023-01-07T08:55:16.688Z,100241.69
2023-01-07T08:57:47.411Z,100240.78
2023-01-07T09:00:16.951Z,100241.56
2023-01-07T09:02:45.451Z,100241.47
2023-01-07T09:05:13.775Z,100236.59
2023-01-07T09:07:41.717Z,100240.41
2023-01-07T09:10:10.902Z,100241.16
2023-01-07T09:12:38.934Z,100239.84
2023-01-07T09:15:10.019Z,100243.69
2023-01-07T09:17:37.949Z,100243.13
2023-01-07T09:20:07.454Z,100236.06
2023-01-07T09:22:36.996Z,100234.91
2023-01-07T09:25:06.225Z,100233.47
2023-01-07T09:27:34.327Z,100230.78
2023-01-07T09:30:02.166Z,100218.44
2023-01-07T09:32:31.304Z,100231.31
2023-01-07T09:34:59.193Z,100223.25
2023-01-07T09:37:27.017Z,100227.06
2023-01-07T09:39:54.827Z,100224.91
2023-01-07T09:42:29.830Z,100222.75
2023-01-07T09:45:10.270Z,100221.44
2023-01-07T09:47:43.705Z,100227.56
2023-01-07T09:50:19.621Z,100211.72
2023-01-07T09:52:51.673Z,100216.31
2023-01-07T09:55:23.747Z,100216.94
2023-01-07T09:57:51.863Z,100211.63
2023-01-07T10:00:23.588Z,100206.97
2023-01-07T10:03:05.577Z,100206.97
2023-01-07T10:05:40.282Z,100203.00
2023-01-07T10:08:29.060Z,100197.63
2023-01-07T10:11:08.969Z,100194.81
2023-01-07T10:13:59.370Z,100187.72
2023-01-07T10:16:35.681Z,100185.59
2023-01-07T10:19:11.784Z,100171.50
2023-01-07T10:21:42.982Z,100177.88
2023-01-07T10:24:21.029Z,100175.13
2023-01-07T10:26:54.453Z,100163.72
2023-01-07T10:29:27.474Z,100164.34
2023-01-07T10:31:59.673Z,100158.31
2023-01-07T10:34:36.847Z,100162.53
2023-01-07T10:37:07.869Z,100153.72
2023-01-07T10:39:47.601Z,100138.38
2023-01-07T10:42:22.854Z,100143.06
2023-01-07T10:45:31.452Z,100134.69
2023-01-07T10:48:19.161Z,100144.53
2023-01-07T10:51:01.392Z,100144.50
2023-01-07T10:53:40.544Z,100151.63
2023-01-07T10:56:20.315Z,100154.31
2023-01-07T10:58:50.291Z,100156.97
2023-01-07T11:01:25.780Z,100151.59
2023-01-07T11:03:56.698Z,100146.94
2023-01-07T11:06:38.795Z,100136.84
2023-01-07T11:09:11.875Z,100136.69
2023-01-07T11:11:41.488Z,100135.13
2023-01-07T11:14:15.374Z,100128.16
2023-01-07T11:16:49.059Z,100135.28
2023-01-07T11:19:26.375Z,100134.28
2023-01-07T11:21:55.627Z,100141.25
2023-01-07T11:24:32.070Z,100130.84
2023-01-07T11:27:03.070Z,100132.38
2023-01-07T11:29:37.090Z,100115.31
2023-01-07T11:32:06.045Z,100124.22
2023-01-07T11:34:36.938Z,100120.63
2023-01-07T11:37:06.497Z,100117.50
2023-01-07T11:39:36.632Z,100114.34
2023-01-07T11:42:40.622Z,100113.09
2023-01-07T11:45:13.540Z,100101.97
2023-01-07T11:47:47.181Z,100095.28
2023-01-07T11:50:30.446Z,100095.53
2023-01-07T11:53:13.019Z,100087.59
2023-01-07T11:55:41.533Z,100091.97
2023-01-07T11:58:28.285Z,100092.75
2023-01-07T12:01:13.738Z,100089.63
2023-01-07T12:03:43.490Z,100083.31
2023-01-07T12:06:19.840Z,100077.41
2023-01-07T12:08:56.037Z,100062.22
2023-01-07T12:11:30.821Z,100069.44
2023-01-07T12:14:06.759Z,100074.81
2023-01-07T12:16:36.161Z,100041.09
2023-01-07T12:19:17.840Z,100066.94
2023-01-07T12:22:02.484Z,100060.44
2023-01-07T12:24:48.232Z,100061.47
2023-01-07T12:27:29.620Z,100048.22
2023-01-07T12:30:09.253Z,100053.50
2023-01-07T12:32:47.895Z,100053.69
2023-01-07T12:35:20.432Z,100052.78
2023-01-07T12:37:56.597Z,100052.13
2023-01-07T12:40:34.032Z,100047.13
2023-01-07T12:43:05.919Z,100041.09
2023-01-07T12:45:40.722Z,100034.41
2023-01-07T12:48:17.416Z,100038.47
2023-01-07T12:50:48.698Z,100027.59
2023-01-07T12:53:20.963Z,100022.63
2023-01-07T12:55:55.690Z,100027.59
2023-01-07T12:58:36.632Z,100017.53
2023-01-07T13:01:11.068Z,100016.38
2023-01-07T13:03:47.311Z,100025.22
2023-01-07T13:06:19.592Z,100016.84
2023-01-07T13:08:55.548Z,100011.63
2023-01-07T13:11:42.709Z,100010.78
2023-01-07T13:14:19.913Z,100006.78
2023-01-07T13:16:47.760Z,100006.94
2023-01-07T13:19:15.660Z,100006.16
2023-01-07T13:21:46.415Z,100007.78
2023-01-07T13:24:54.441Z,100011.91
2023-01-07T13:27:35.773Z,100001.78
2023-01-07T13:30:19.673Z,100012.63
2023-01-07T13:33:03.505Z,100010.78
2023-01-07T13:35:56.420Z,100015.47
2023-01-07T13:38:58.613Z,100010.56
2023-01-07T13:41:58.853Z,99994.19
2023-01-07T13:45:01.789Z,100008.34
2023-01-07T13:47:41.118Z,100004.16
2023-01-07T13:50:19.625Z,100000.72
2023-01-07T13:52:57.154Z,99998.97
2023-01-07T13:55:38.234Z,99999.94
2023-01-07T13:58:44.794Z,99998.38
2023-01-07T14:01:15.629Z,100000.09
2023-01-07T14:03:46.841Z,99998.38
2023-01-07T14:06:40.590Z,99986.56
2023-01-07T14:09:26.310Z,99988.16
2023-01-07T14:12:30.255Z,99992.22
2023-01-07T14:15:09.200Z,99988.16
2023-01-07T14:17:49.119Z,99989.97
2023-01-07T14:20:23.021Z,99981.72
2023-01-07T14:22:59.553Z,99983.44
2023-01-07T14:25:48.687Z,99976.88
2023-01-07T14:28:56.480Z,99982.72
2023-01-07T14:31:26.454Z,99982.75
2023-01-07T14:33:58.906Z,99959.81
2023-01-07T14:37:06.239Z,99961.53
2023-01-07T14:39:36.001Z,99970.06
2023-01-07T14:42:43.572Z,99966.66
2023-01-07T14:45:48.974Z,99966.66
2023-01-07T14:48:37.129Z,99960.69
2023-01-07T14:51:33.092Z,99956.19
2023-01-07T14:54:40.677Z,99958.53
2023-01-07T14:57:21.602Z,99951.06
2023-01-07T15:00:11.285Z,99952.78
2023-01-07T15:03:17.647Z,99959.47
2023-01-07T15:06:12.720Z,99952.88
2023-01-07T15:09:08.157Z,99950.34
2023-01-07T15:11:55.031Z,99920.59
2023-01-07T15:14:45.617Z,99934.44
2023-01-07T15:17:16.306Z,99934.44
2023-01-07T15:19:45.112Z,99939.41
2023-01-07T15:22:44.293Z,99938.63
2023-01-07T15:25:29.740Z,99944.53
2023-01-07T15:28:05.935Z,99941.91
2023-01-07T15:30:45.291Z,99933.38
2023-01-07T15:33:35.014Z,99930.69
2023-01-07T15:36:04.882Z,99920.50
2023-01-07T15:38:39.130Z,99925.78
2023-01-07T15:41:24.784Z,99904.50
2023-01-07T15:43:53.248Z,99928.34
2023-01-07T15:46:22.529Z,99938.09
2023-01-07T15:49:17.097Z,99943.00
2023-01-07T15:51:47.951Z,99943.75
2023-01-07T15:54:32.153Z,99941.91
2023-01-07T15:57:07.678Z,99932.47
2023-01-07T15:59:38.932Z,99945.06
2023-01-07T16:02:22.183Z,99940.00
2023-01-07T16:04:52.946Z,99935.03
2023-01-07T16:07:28.390Z,99935.09
2023-01-07T16:09:57.644Z,99934.31
2023-01-07T16:12:35.610Z,99941.66
2023-01-07T16:15:20.911Z,99939.94
2023-01-07T16:17:52.324Z,99948.34
2023-01-07T16:20:23.374Z,99946.75
2023-01-07T16:22:53.070Z,99942.69
2023-01-07T16:25:35.954Z,99931.81
2023-01-07T16:28:05.965Z,99931.94
2023-01-07T16:30:39.118Z,99932.03
2023-01-07T16:33:07.074Z,99928.69
2023-01-07T16:35:38.470Z,99931.16
2023-01-07T16:38:07.313Z,99921.88
2023-01-07T16:40:37.346Z,99918.06
2023-01-07T16:43:32.010Z,99910.69
2023-01-07T16:46:17.300Z,99879.34
2023-01-07T16:48:45.789Z,99908.34
2023-01-07T16:51:37.886Z,99910.97
2023-01-07T16:54:40.291Z,99905.84
2023-01-07T16:57:28.606Z,99906.56
2023-01-07T16:59:59.662Z,99901.53
2023-01-07T17:02:31.852Z,99900.88
2023-01-07T17:05:16.986Z,99901.72
2023-01-07T17:07:48.793Z,99901.00
2023-01-07T17:10:22.689Z,99893.47
2023-01-07T17:12:57.965Z,99901.19
2023-01-07T17:15:40.062Z,99878.41
2023-01-07T17:18:27.559Z,99898.84
2023-01-07T17:20:57.290Z,99908.03
2023-01-07T17:23:43.221Z,99907.19
2023-01-07T17:26:21.420Z,99909.69
2023-01-07T17:28:51.624Z,99907.16
2023-01-07T17:31:22.517Z,99870.56
2023-01-07T17:33:51.020Z,99907.81
2023-01-07T17:36:21.230Z,99907.56
2023-01-07T17:38:49.284Z,99915.69
2023-01-07T17:41:48.834Z,99915.69
2023-01-07T17:44:16.907Z,99911.31
2023-01-07T17:46:46.246Z,99908.63
2023-01-07T17:49:14.276Z,99911.06
2023-01-07T17:51:44.334Z,99905.75
2023-01-07T17:54:19.960Z,99911.63
2023-01-07T17:56:48.301Z,99901.53
2023-01-07T17:59:18.064Z,99913.22
2023-01-07T18:01:47.591Z,99908.13
2023-01-07T18:04:15.687Z,99903.94
2023-01-07T18:06:44.394Z,99905.75
2023-01-07T18:09:13.722Z,99898.41
2023-01-07T18:12:01.642Z,99906.94
2023-01-07T18:14:29.779Z,99901.28
2023-01-07T18:16:59.257Z,99899.47
2023-01-07T18:19:27.162Z,99898.66
2023-01-07T18:21:55.249Z,99893.81
2023-01-07T18:24:23.329Z,99898.03
2023-01-07T18:26:51.302Z,99887.34
2023-01-07T18:29:19.205Z,99897.22
2023-01-07T18:31:47.167Z,99881.75
2023-01-07T18:34:16.576Z,99883.47
2023-01-07T18:36:44.462Z,99899.59
2023-01-07T18:39:19.149Z,99897.09
2023-01-07T18:41:49.941Z,99869.75
2023-01-07T18:44:18.051Z,99901.03
2023-01-07T18:46:45.950Z,99903.25
2023-01-07T18:49:14.205Z,99904.00
2023-01-07T18:51:43.498Z,99899.81
2023-01-07T18:54:11.346Z,99913.09
2023-01-07T18:56:39.266Z,99913.22
2023-01-07T18:59:07.193Z,99906.53
2023-01-07T19:01:35.830Z,99904.00
2023-01-07T19:04:05.081Z,99909.94
2023-01-07T19:06:34.280Z,99902.16
2023-01-07T19:09:03.547Z,99899.81
2023-01-07T19:11:31.434Z,99893.91
2023-01-07T19:13:59.388Z,99897.19
2023-01-07T19:16:27.394Z,99900.59
2023-01-07T19:18:55.259Z,99891.34
2023-01-07T19:21:25.216Z,99896.34
2023-01-07T19:23:53.291Z,99895.53
2023-01-07T19:26:22.690Z,99894.88
2023-01-07T19:28:50.550Z,99887.47
2023-01-07T19:31:18.452Z,99896.47
2023-01-07T19:33:46.314Z,99898.03
2023-01-07T19:36:17.008Z,99889.78
2023-01-07T19:38:46.953Z,99901.44
2023-01-07T19:41:17.646Z,99889.06
2023-01-07T19:43:48.768Z,99898.28
2023-01-07T19:46:17.106Z,99899.97
2023-01-07T19:48:47.498Z,99899.25
2023-01-07T19:51:16.103Z,99903.25
2023-01-07T19:53:44.012Z,99901.31
2023-01-07T19:56:13.568Z,99897.91
2023-01-07T19:58:42.829Z,99888.66
2023-01-07T20:01:15.340Z,99890.22
2023-01-07T20:03:44.559Z,99893.63
2023-01-07T20:06:14.319Z,99897.13
2023-01-07T20:08:42.303Z,99892.28
2023-01-07T20:11:10.293Z,99891.59
2023-01-07T20:13:39.534Z,99904.38
2023-01-07T20:16:09.436Z,99897.03
2023-01-07T20:18:39.713Z,99906.34
2023-01-07T20:21:08.451Z,99893.63
2023-01-07T20:23:36.957Z,99897.81
2023-01-07T20:26:06.596Z,99914.91
2023-01-07T20:28:35.524Z,99905.72
2023-01-07T20:31:05.664Z,99908.91
2023-01-07T20:33:33.563Z,99893.81
2023-01-07T20:36:04.795Z,99897.22
2023-01-07T20:38:32.956Z,99888.84
2023-01-07T20:41:01.261Z,99892.34
2023-01-07T20:43:29.170Z,99895.16
2023-01-07T20:46:01.086Z,99892.88
2023-01-07T20:48:29.841Z,99892.22
2023-01-07T20:50:58.405Z,99894.75
2023-01-07T20:53:28.544Z,99894.81
2023-01-07T20:56:00.147Z,99895.72
2023-01-07T20:58:28.297Z,99896.56
2023-01-07T21:00:58.620Z,99890.75
2023-01-07T21:03:27.125Z,99893.38
2023-01-07T21:05:56.449Z,99891.78
2023-01-07T21:08:24.613Z,99891.00
2023-01-07T21:10:54.613Z,99878.41
2023-01-07T21:13:23.261Z,99885.22
2023-01-07T21:15:51.151Z,99881.94
2023-01-07T21:18:19.471Z,99881.22
2023-01-07T21:20:47.993Z,99867.91
2023-01-07T21:23:15.821Z,99867.13
2023-01-07T21:25:47.985Z,99858.88
2023-01-07T21:28:17.236Z,99854.72
2023-01-07T21:30:45.206Z,99849.81
2023-01-07T21:33:13.410Z,99827.81
2023-01-07T21:35:41.595Z,99848.06
2023-01-07T21:38:09.493Z,99847.06
2023-01-07T21:40:39.273Z,99849.81
2023-01-07T21:43:07.617Z,99863.91
2023-01-07T21:45:37.387Z,99854.66
2023-01-07T21:48:05.700Z,99843.78
2023-01-07T21:50:33.591Z,99848.66
2023-01-07T21:53:01.474Z,99846.16
2023-01-07T21:55:29.465Z,99821.69
2023-01-07T21:57:57.402Z,99840.38
2023-01-07T22:00:25.280Z,99846.34
2023-01-07T22:02:54.561Z,99841.44
2023-01-07T22:05:22.446Z,99836.44
2023-01-07T22:07:50.229Z,99841.44
2023-01-07T22:10:18.283Z,99840.63
2023-01-07T22:12:46.185Z,99808.34
2023-01-07T22:15:14.063Z,99805.84
2023-01-07T22:17:41.987Z,99837.22
2023-01-07T22:20:13.140Z,99837.22
2023-01-07T22:22:41.217Z,99836.44
2023-01-07T22:25:10.607Z,99840.63
2023-01-07T22:27:38.594Z,99838.94
2023-01-07T22:30:08.219Z,99839.03
2023-01-07T22:32:36.093Z,99834.03
2023-01-07T22:35:04.085Z,99830.88
2023-01-07T22:37:33.480Z,99825.13
2023-01-07T22:40:04.244Z,99810.84
2023-01-07T22:42:36.468Z,99813.50
2023-01-07T22:45:09.788Z,99815.22
2023-01-07T22:47:41.789Z,99819.34
2023-01-07T22:50:10.673Z,99811.88
2023-01-07T22:52:40.062Z,99809.25
2023-01-07T22:55:08.834Z,99816.00
2023-01-07T22:57:37.072Z,99813.44
2023-01-07T23:00:07.761Z,99816.78
2023-01-07T23:02:35.631Z,99812.59
2023-01-07T23:05:03.928Z,99777.09
2023-01-07T23:07:31.875Z,99810.97
2023-01-07T23:10:01.182Z,99803.53
2023-01-07T23:12:29.235Z,99810.22
2023-01-07T23:14:57.169Z,99802.81
2023-01-07T23:17:26.253Z,99811.13
2023-01-07T23:19:54.177Z,99798.56
2023-01-07T23:22:22.030Z,99805.44
2023-01-07T23:24:49.879Z,99799.59
2023-01-07T23:27:19.041Z,99802.94
2023-01-07T23:29:46.897Z,99798.44
2023-01-07T23:32:14.716Z,99804.34
2023-01-07T23:34:42.581Z,99802.69
2023-01-07T23:37:10.427Z,99790.19
2023-01-07T23:39:38.286Z,99799.34
2023-01-07T23:42:06.239Z,99794.44
2023-01-07T23:44:35.432Z,99787.75
2023-01-07T23:47:03.358Z,99787.75
2023-01-07T23:49:31.908Z,99786.09
2023-01-07T23:51:59.818Z,99776.06
2023-01-07T23:54:27.754Z,99775.22
2023-01-07T23:56:56.071Z,99773.47
2023-01-07T23:59:24.112Z,99778.44
